Time;durP1;ratioP1;P1;durP2;ratioP2;P2;SDS_P1;SDS_P2;PMS_P1;PMS_P2;Temp;Humidity;BMP_temperature;BMP_pressure;BME280_temperature;BME280_humidity;BME280_pressure;Samples;Min_cycle;Max_cycle;Signal;HPM_P1;HPM_P2
2020/12/08 00:01:05;;;;;;;41.87;18.90;;;;;;;;;;5062671;28;20114;-76
2020/12/08 00:03:30;;;;;;;38.80;17.63;;;;;;;;;;5055574;28;20056;-76
2020/12/08 00:05:55;;;;;;;37.77;18.47;;;;;;;;;;5061828;28;20021;-76
2020/12/08 00:08:20;;;;;;;38.47;18.07;;;;;;;;;;5054229;28;20102;-76
2020/12/08 00:10:45;;;;;;;49.60;19.13;;;;;;;;;;5068663;28;20043;-76
2020/12/08 00:13:10;;;;;;;43.00;17.77;;;;;;;;;;5062697;28;20033;-76
2020/12/08 00:15:36;;;;;;;39.90;18.60;;;;;;;;;;5057003;28;20025;-76
2020/12/08 00:18:01;;;;;;;41.63;19.13;;;;;;;;;;5063915;28;20362;-76
2020/12/08 00:20:26;;;;;;;40.20;18.43;;;;;;;;;;5054065;28;20033;-76
2020/12/08 00:22:51;;;;;;;46.10;19.33;;;;;;;;;;5063840;28;20020;-75
2020/12/08 00:25:17;;;;;;;35.00;16.83;;;;;;;;;;5060414;28;20086;-76
2020/12/08 00:27:42;;;;;;;39.07;17.30;;;;;;;;;;5059743;28;20033;-76
2020/12/08 00:30:08;;;;;;;38.50;18.27;;;;;;;;;;5063909;28;20103;-76
2020/12/08 00:32:35;;;;;;;40.97;18.77;;;;;;;;;;5058254;28;20021;-76
2020/12/08 00:35:00;;;;;;;35.60;18.53;;;;;;;;;;5064337;28;20025;-76
2020/12/08 00:37:26;;;;;;;38.37;18.10;;;;;;;;;;5055984;28;20488;-76
2020/12/08 00:39:51;;;;;;;38.50;18.53;;;;;;;;;;5072207;28;20111;-76
2020/12/08 00:42:16;;;;;;;36.10;17.33;;;;;;;;;;5058146;28;20465;-76
2020/12/08 00:44:41;;;;;;;35.67;17.83;;;;;;;;;;5064084;28;20028;-76
2020/12/08 00:47:07;;;;;;;33.70;16.50;;;;;;;;;;5065325;28;20573;-76
2020/12/08 00:49:33;;;;;;;37.67;16.97;;;;;;;;;;5070575;28;20468;-76
2020/12/08 00:51:58;;;;;;;35.23;16.07;;;;;;;;;;5058275;28;20021;-76
2020/12/08 00:54:24;;;;;;;33.30;15.87;;;;;;;;;;5069170;28;20025;-77
2020/12/08 00:56:49;;;;;;;33.73;15.60;;;;;;;;;;5060644;28;20028;-76
2020/12/08 00:59:14;;;;;;;32.70;15.33;;;;;;;;;;5063212;28;20472;-76
2020/12/08 01:01:40;;;;;;;34.97;16.30;;;;;;;;;;5052901;28;20044;-76
2020/12/08 01:04:08;;;;;;;39.70;15.40;;;;;;;;;;5060952;28;20016;-76
2020/12/08 01:06:34;;;;;;;33.47;15.73;;;;;;;;;;5052482;28;20025;-76
2020/12/08 01:09:03;;;;;;;31.07;14.47;;;;;;;;;;5060355;28;20134;-76
2020/12/08 01:11:28;;;;;;;35.93;16.20;;;;;;;;;;5070706;28;20536;-76
2020/12/08 01:13:53;;;;;;;29.37;15.37;;;;;;;;;;5060822;28;20017;-76
2020/12/08 01:16:22;;;;;;;31.37;14.83;;;;;;;;;;5058791;28;20017;-76
2020/12/08 01:18:47;;;;;;;30.17;14.83;;;;;;;;;;5101851;28;20028;-76
2020/12/08 01:21:15;;;;;;;29.27;14.87;;;;;;;;;;5068669;28;20023;-76
2020/12/08 01:23:40;;;;;;;35.77;15.73;;;;;;;;;;5070910;28;20048;-76
2020/12/08 01:26:05;;;;;;;28.83;14.80;;;;;;;;;;5063104;28;20101;-76
2020/12/08 01:28:30;;;;;;;36.47;16.03;;;;;;;;;;5063266;28;20023;-76
2020/12/08 01:30:57;;;;;;;30.90;14.80;;;;;;;;;;5055021;28;20021;-76
2020/12/08 01:33:22;;;;;;;29.67;14.73;;;;;;;;;;5063566;28;20066;-77
2020/12/08 01:35:47;;;;;;;29.13;14.43;;;;;;;;;;5103662;28;20407;-76
2020/12/08 01:38:12;;;;;;;30.63;14.90;;;;;;;;;;5060721;28;20032;-76
2020/12/08 01:40:38;;;;;;;33.57;15.90;;;;;;;;;;5063921;28;20030;-76
2020/12/08 01:43:03;;;;;;;28.80;15.50;;;;;;;;;;5056510;28;20472;-76
2020/12/08 01:45:28;;;;;;;27.13;14.70;;;;;;;;;;5059830;28;20025;-76
2020/12/08 01:47:53;;;;;;;29.47;14.13;;;;;;;;;;5058427;28;20021;-76
2020/12/08 01:50:19;;;;;;;29.03;14.47;;;;;;;;;;5064088;28;20070;-76
2020/12/08 01:52:45;;;;;;;28.37;13.90;;;;;;;;;;5058710;28;20027;-76
2020/12/08 01:55:12;;;;;;;31.70;14.93;;;;;;;;;;5066543;28;20423;-76
2020/12/08 01:57:37;;;;;;;27.70;14.27;;;;;;;;;;5063083;28;20043;-76
2020/12/08 02:00:03;;;;;;;29.07;14.90;;;;;;;;;;5056902;28;20021;-76
2020/12/08 02:02:28;;;;;;;32.07;15.27;;;;;;;;;;5067139;28;20020;-76
2020/12/08 02:04:53;;;;;;;30.77;14.17;;;;;;;;;;5054922;28;20543;-76
2020/12/08 02:07:18;;;;;;;31.33;15.63;;;;;;;;;;5061294;28;20024;-76
2020/12/08 02:09:44;;;;;;;28.67;13.90;;;;;;;;;;5066257;28;20028;-76
2020/12/08 02:12:09;;;;;;;29.67;14.40;;;;;;;;;;5063606;28;20465;-76
2020/12/08 02:14:34;;;;;;;31.90;14.60;;;;;;;;;;5073215;28;20025;-76
2020/12/08 02:16:59;;;;;;;27.37;14.07;;;;;;;;;;5069830;28;20028;-76
2020/12/08 02:19:24;;;;;;;27.87;13.83;;;;;;;;;;5064682;28;20025;-76
2020/12/08 02:21:50;;;;;;;34.37;14.37;;;;;;;;;;5055156;28;20471;-76
2020/12/08 02:24:18;;;;;;;28.70;13.50;;;;;;;;;;5061550;28;20021;-76
2020/12/08 02:26:44;;;;;;;32.17;13.97;;;;;;;;;;5057337;28;20111;-76
2020/12/08 02:29:10;;;;;;;33.57;15.33;;;;;;;;;;5058854;28;20052;-76
2020/12/08 02:31:35;;;;;;;32.97;16.37;;;;;;;;;;5073735;28;20035;-76
2020/12/08 02:34:00;;;;;;;32.87;15.93;;;;;;;;;;5055591;28;20074;-76
2020/12/08 02:36:25;;;;;;;29.67;15.27;;;;;;;;;;5064051;28;20456;-76
2020/12/08 02:38:50;;;;;;;37.77;17.20;;;;;;;;;;5064166;28;20024;-76
2020/12/08 02:41:15;;;;;;;32.53;15.67;;;;;;;;;;5063043;28;20479;-76
2020/12/08 02:43:41;;;;;;;35.67;16.13;;;;;;;;;;5064556;28;20035;-76
2020/12/08 02:46:09;;;;;;;30.47;14.40;;;;;;;;;;5063076;28;20550;-76
2020/12/08 02:48:35;;;;;;;32.33;15.70;;;;;;;;;;5057728;28;20076;-76
2020/12/08 02:51:00;;;;;;;35.30;14.83;;;;;;;;;;5059112;28;20756;-76
2020/12/08 02:53:25;;;;;;;27.47;14.07;;;;;;;;;;5064778;28;20016;-76
2020/12/08 02:55:50;;;;;;;30.37;14.10;;;;;;;;;;5058766;28;20450;-76
2020/12/08 02:58:15;;;;;;;30.10;14.53;;;;;;;;;;5069798;28;20036;-76
2020/12/08 03:00:40;;;;;;;31.63;14.93;;;;;;;;;;5059061;28;20032;-76
2020/12/08 03:03:06;;;;;;;35.00;15.70;;;;;;;;;;5058474;28;20058;-76
2020/12/08 03:05:31;;;;;;;37.50;17.73;;;;;;;;;;5067428;28;20477;-76
2020/12/08 03:07:56;;;;;;;35.13;17.07;;;;;;;;;;5057005;28;20472;-76
2020/12/08 03:10:22;;;;;;;31.57;16.07;;;;;;;;;;5065320;28;20017;-76
2020/12/08 03:12:47;;;;;;;26.63;13.87;;;;;;;;;;5067647;28;20058;-76
2020/12/08 03:15:12;;;;;;;31.07;13.90;;;;;;;;;;5063933;28;20079;-76
2020/12/08 03:17:37;;;;;;;36.63;14.53;;;;;;;;;;5064581;28;20509;-76
2020/12/08 03:20:02;;;;;;;35.70;15.40;;;;;;;;;;5054325;28;20025;-77
2020/12/08 03:22:28;;;;;;;36.67;14.83;;;;;;;;;;5058822;28;20047;-76
2020/12/08 03:24:53;;;;;;;33.53;15.37;;;;;;;;;;5064754;28;20109;-76
2020/12/08 03:27:18;;;;;;;34.67;16.03;;;;;;;;;;5060422;28;20480;-76
2020/12/08 03:29:44;;;;;;;37.30;16.00;;;;;;;;;;5064276;28;20028;-76
2020/12/08 03:32:09;;;;;;;36.40;16.23;;;;;;;;;;5064401;28;20024;-76
2020/12/08 03:34:35;;;;;;;31.20;14.73;;;;;;;;;;5060273;28;20108;-76
2020/12/08 03:37:00;;;;;;;32.97;15.37;;;;;;;;;;5063289;28;20090;-77
2020/12/08 03:39:25;;;;;;;35.37;16.00;;;;;;;;;;5063456;28;20027;-76
2020/12/08 03:41:50;;;;;;;36.73;15.80;;;;;;;;;;5056468;28;20032;-76
2020/12/08 03:44:16;;;;;;;33.73;15.27;;;;;;;;;;5056306;28;20075;-76
2020/12/08 03:46:41;;;;;;;36.60;16.17;;;;;;;;;;5063845;28;20023;-76
2020/12/08 03:49:06;;;;;;;34.90;15.17;;;;;;;;;;5057823;28;20021;-76
2020/12/08 03:51:31;;;;;;;32.13;14.07;;;;;;;;;;5061159;28;20024;-76
2020/12/08 03:53:56;;;;;;;34.90;14.13;;;;;;;;;;5064072;28;20035;-77
2020/12/08 03:56:21;;;;;;;29.20;14.03;;;;;;;;;;5056937;28;20507;-76
2020/12/08 03:58:47;;;;;;;35.43;15.33;;;;;;;;;;5059207;28;20032;-77
2020/12/08 04:01:16;;;;;;;30.03;14.27;;;;;;;;;;5055575;28;20029;-77
2020/12/08 04:03:45;;;;;;;34.00;15.43;;;;;;;;;;5062665;28;20032;-76
2020/12/08 04:06:13;;;;;;;32.37;14.50;;;;;;;;;;5057968;28;20108;-76
2020/12/08 04:08:42;;;;;;;30.80;14.97;;;;;;;;;;5070145;28;20512;-76
2020/12/08 04:11:07;;;;;;;33.03;14.80;;;;;;;;;;5058048;28;20048;-76
2020/12/08 04:13:33;;;;;;;30.07;14.53;;;;;;;;;;5091908;28;20052;-76
2020/12/08 04:15:58;;;;;;;31.27;14.43;;;;;;;;;;5064174;28;20087;-77
2020/12/08 04:18:23;;;;;;;31.87;13.70;;;;;;;;;;5055869;28;20032;-77
2020/12/08 04:20:49;;;;;;;29.87;13.90;;;;;;;;;;5060970;28;20036;-76
2020/12/08 04:23:15;;;;;;;29.67;13.10;;;;;;;;;;5063626;28;20464;-77
2020/12/08 04:25:41;;;;;;;30.00;14.33;;;;;;;;;;5054929;28;20061;-77
2020/12/08 04:28:06;;;;;;;27.77;14.60;;;;;;;;;;5062096;28;20040;-77
2020/12/08 04:30:33;;;;;;;31.37;15.50;;;;;;;;;;5062306;28;20504;-76
2020/12/08 04:32:58;;;;;;;30.50;14.40;;;;;;;;;;5060913;28;20032;-77
2020/12/08 04:35:23;;;;;;;30.50;14.57;;;;;;;;;;5063113;28;20021;-77
2020/12/08 04:37:48;;;;;;;31.23;14.83;;;;;;;;;;5065048;28;20028;-77
2020/12/08 04:40:14;;;;;;;27.00;13.10;;;;;;;;;;5063876;28;20405;-77
2020/12/08 04:42:42;;;;;;;26.63;13.50;;;;;;;;;;5055402;28;20036;-77
2020/12/08 04:45:08;;;;;;;31.27;14.87;;;;;;;;;;5064344;28;20487;-76
2020/12/08 04:47:34;;;;;;;29.83;14.43;;;;;;;;;;5059395;28;20029;-76
2020/12/08 04:50:00;;;;;;;31.03;15.07;;;;;;;;;;5065550;28;20092;-76
2020/12/08 04:52:25;;;;;;;29.50;13.53;;;;;;;;;;5060894;28;20090;-76
2020/12/08 04:54:50;;;;;;;23.70;13.73;;;;;;;;;;5066202;28;20024;-76
2020/12/08 04:57:15;;;;;;;26.37;12.70;;;;;;;;;;5060724;28;20028;-76
2020/12/08 04:59:40;;;;;;;26.40;12.47;;;;;;;;;;5065052;28;20159;-76
2020/12/08 05:02:06;;;;;;;25.67;12.67;;;;;;;;;;5061705;28;20107;-77
2020/12/08 05:04:31;;;;;;;27.63;13.60;;;;;;;;;;5058997;28;20021;-77
2020/12/08 05:07:03;;;;;;;25.13;12.83;;;;;;;;;;5072998;28;20020;-76
2020/12/08 05:09:28;;;;;;;28.13;13.43;;;;;;;;;;5057392;28;20016;-77
2020/12/08 05:12:00;;;;;;;25.97;13.53;;;;;;;;;;5071442;28;20112;-77
2020/12/08 05:14:25;;;;;;;29.00;12.70;;;;;;;;;;5060201;28;20437;-77
2020/12/08 05:17:01;;;;;;;27.00;13.43;;;;;;;;;;5063071;28;20040;-77
2020/12/08 05:19:26;;;;;;;28.30;13.50;;;;;;;;;;5063806;28;20035;-76
2020/12/08 05:21:51;;;;;;;27.40;12.27;;;;;;;;;;5071975;28;20533;-76
2020/12/08 05:24:23;;;;;;;26.93;13.53;;;;;;;;;;5060694;28;20024;-77
2020/12/08 05:26:55;;;;;;;23.85;13.05;;;;;;;;;;5069315;28;20021;-77
2020/12/08 05:29:21;;;;;;;22.52;10.93;;;;;;;;;;5059434;28;20104;-76
2020/12/08 05:31:46;;;;;;;25.37;12.77;;;;;;;;;;5064872;28;20099;-76
2020/12/08 05:34:15;;;;;;;23.73;12.30;;;;;;;;;;5067154;28;20016;-77
2020/12/08 05:36:46;;;;;;;28.50;13.50;;;;;;;;;;5061581;28;20017;-77
2020/12/08 05:39:12;;;;;;;28.77;12.90;;;;;;;;;;5063910;28;20060;-77
2020/12/08 05:41:42;;;;;;;25.70;12.50;;;;;;;;;;5064384;28;20113;-77
2020/12/08 05:44:08;;;;;;;24.37;12.27;;;;;;;;;;5068287;28;20032;-77
2020/12/08 05:46:39;;;;;;;28.13;12.93;;;;;;;;;;5065290;28;20024;-77
2020/12/08 05:49:04;;;;;;;31.37;13.33;;;;;;;;;;5063462;28;20012;-76
2020/12/08 05:51:30;;;;;;;27.67;12.47;;;;;;;;;;5058373;28;20493;-76
2020/12/08 05:53:55;;;;;;;26.90;13.13;;;;;;;;;;5061812;28;20024;-77
2020/12/08 05:56:20;;;;;;;26.23;12.23;;;;;;;;;;5061137;28;20020;-76
2020/12/08 05:58:53;;;;;;;28.10;13.47;;;;;;;;;;5062460;28;20396;-77
2020/12/08 06:01:18;;;;;;;32.45;13.45;;;;;;;;;;5064888;28;20025;-77
2020/12/08 06:03:52;;;;;;;27.73;13.40;;;;;;;;;;5061231;28;20078;-77
2020/12/08 06:06:17;;;;;;;29.97;13.87;;;;;;;;;;5062460;28;20060;-77
2020/12/08 06:08:43;;;;;;;32.97;14.40;;;;;;;;;;5064573;28;20048;-77
2020/12/08 06:11:08;;;;;;;30.70;14.07;;;;;;;;;;5061925;28;20017;-77
2020/12/08 06:13:33;;;;;;;30.70;14.37;;;;;;;;;;5058899;28;20048;-77
2020/12/08 06:15:59;;;;;;;24.13;12.77;;;;;;;;;;5060364;28;20029;-76
2020/12/08 06:18:28;;;;;;;31.63;15.40;;;;;;;;;;5060123;28;20025;-77
2020/12/08 06:20:53;;;;;;;30.33;14.43;;;;;;;;;;5064827;28;20100;-77
2020/12/08 06:23:18;;;;;;;34.67;14.30;;;;;;;;;;5065395;28;20111;-76
2020/12/08 06:25:43;;;;;;;28.53;14.53;;;;;;;;;;5062179;28;20021;-77
2020/12/08 06:28:08;;;;;;;35.47;15.70;;;;;;;;;;5057200;28;20044;-76
2020/12/08 06:30:34;;;;;;;35.33;17.33;;;;;;;;;;5059961;28;20031;-77
2020/12/08 06:33:00;;;;;;;32.83;15.77;;;;;;;;;;5057654;28;20016;-76
2020/12/08 06:35:30;;;;;;;33.83;15.87;;;;;;;;;;5060561;28;20356;-77
2020/12/08 06:37:55;;;;;;;28.90;14.63;;;;;;;;;;5064750;28;20476;-77
2020/12/08 06:40:25;;;;;;;30.93;14.53;;;;;;;;;;5062827;28;20027;-76
2020/12/08 06:42:51;;;;;;;28.60;13.53;;;;;;;;;;5063558;28;20021;-77
2020/12/08 06:45:17;;;;;;;29.23;13.20;;;;;;;;;;5068594;28;20016;-77
2020/12/08 06:47:43;;;;;;;32.03;13.60;;;;;;;;;;5066982;28;20369;-76
2020/12/08 06:50:28;;;;;;;32.33;13.83;;;;;;;;;;5062679;28;20021;-77
2020/12/08 06:52:54;;;;;;;29.97;13.90;;;;;;;;;;5060496;28;20100;-76
2020/12/08 06:55:19;;;;;;;31.70;14.30;;;;;;;;;;5069014;28;20024;-77
2020/12/08 06:57:45;;;;;;;28.60;13.80;;;;;;;;;;5059864;28;20017;-76
2020/12/08 07:00:11;;;;;;;28.37;13.57;;;;;;;;;;5064372;28;20483;-76
2020/12/08 07:02:54;;;;;;;29.30;13.60;;;;;;;;;;5061521;28;20025;-76
2020/12/08 07:05:27;;;;;;;31.13;15.03;;;;;;;;;;5069136;28;20025;-77
2020/12/08 07:07:52;;;;;;;31.70;16.33;;;;;;;;;;5059900;28;20465;-77
2020/12/08 07:10:18;;;;;;;38.20;17.67;;;;;;;;;;5070231;28;20021;-76
2020/12/08 07:12:51;;;;;;;33.37;16.77;;;;;;;;;;5057674;28;20031;-76
2020/12/08 07:15:16;;;;;;;;;;;;;;;;;;5065463;28;20017;-76
2020/12/08 07:17:41;;;;;;;37.73;17.97;;;;;;;;;;5098572;28;19908;-76
2020/12/08 07:20:06;;;;;;;37.03;18.30;;;;;;;;;;5064235;28;20071;-76
2020/12/08 07:22:39;;;;;;;44.93;19.23;;;;;;;;;;5060570;28;20013;-76
2020/12/08 07:25:07;;;;;;;41.23;19.17;;;;;;;;;;5057774;28;20109;-76
2020/12/08 07:27:33;;;;;;;42.60;19.47;;;;;;;;;;5059067;28;20078;-76
2020/12/08 07:29:58;;;;;;;46.37;20.77;;;;;;;;;;5065946;28;20452;-76
2020/12/08 07:32:27;;;;;;;40.40;18.20;;;;;;;;;;5066232;28;20379;-76
2020/12/08 07:34:52;;;;;;;42.20;21.03;;;;;;;;;;5104620;28;20016;-76
2020/12/08 07:37:17;;;;;;;47.00;21.20;;;;;;;;;;5057854;28;20036;-76
2020/12/08 07:39:42;;;;;;;44.67;20.13;;;;;;;;;;5058683;28;20058;-76
2020/12/08 07:42:07;;;;;;;43.33;19.43;;;;;;;;;;5068089;28;20024;-76
2020/12/08 07:44:33;;;;;;;43.77;20.70;;;;;;;;;;5067570;28;20380;-76
2020/12/08 07:46:59;;;;;;;43.03;19.80;;;;;;;;;;5065721;28;20024;-76
2020/12/08 07:49:24;;;;;;;42.63;19.67;;;;;;;;;;5056739;28;20053;-76
2020/12/08 07:51:50;;;;;;;41.50;18.60;;;;;;;;;;5060380;28;20452;-76
2020/12/08 07:54:15;;;;;;;36.80;17.40;;;;;;;;;;5065745;28;20099;-76
2020/12/08 07:56:40;;;;;;;41.33;17.60;;;;;;;;;;5069638;28;20021;-76
2020/12/08 07:59:06;;;;;;;41.17;17.63;;;;;;;;;;5060312;28;20373;-76
2020/12/08 08:01:42;;;;;;;38.00;18.00;;;;;;;;;;5069504;28;20016;-76
2020/12/08 08:04:08;;;;;;;42.10;19.57;;;;;;;;;;5064449;28;20021;-76
2020/12/08 08:06:33;;;;;;;40.97;18.77;;;;;;;;;;5075211;28;20027;-76
2020/12/08 08:08:58;;;;;;;44.27;19.73;;;;;;;;;;5078926;28;20448;-76
2020/12/08 08:11:23;;;;;;;42.27;18.90;;;;;;;;;;5059899;28;20019;-76
2020/12/08 08:13:49;;;;;;;42.27;19.10;;;;;;;;;;5067392;28;20024;-76
2020/12/08 08:16:16;;;;;;;53.23;19.47;;;;;;;;;;5055075;28;20033;-76
2020/12/08 08:18:41;;;;;;;41.70;19.17;;;;;;;;;;5060121;28;20032;-76
2020/12/08 08:21:07;;;;;;;46.10;19.60;;;;;;;;;;5073380;28;20017;-76
2020/12/08 08:23:32;;;;;;;47.00;20.57;;;;;;;;;;5059907;28;20036;-76
2020/12/08 08:25:58;;;;;;;53.10;21.73;;;;;;;;;;5058123;28;20086;-76
2020/12/08 08:28:23;;;;;;;54.83;24.37;;;;;;;;;;5063376;28;20040;-76
2020/12/08 08:30:49;;;;;;;54.53;23.17;;;;;;;;;;5063433;28;20021;-76
2020/12/08 08:33:14;;;;;;;59.07;25.60;;;;;;;;;;5064521;28;20017;-76
2020/12/08 08:35:39;;;;;;;55.63;24.00;;;;;;;;;;5059801;28;20029;-76
2020/12/08 08:38:04;;;;;;;48.63;24.17;;;;;;;;;;5057952;28;20017;-76
2020/12/08 08:40:31;;;;;;;48.93;23.30;;;;;;;;;;5062348;28;20013;-76
2020/12/08 08:42:57;;;;;;;55.00;25.67;;;;;;;;;;5068073;28;20017;-76
2020/12/08 08:45:22;;;;;;;63.10;27.03;;;;;;;;;;5063503;28;20395;-76
2020/12/08 08:47:47;;;;;;;55.27;25.47;;;;;;;;;;5055969;28;20028;-77
2020/12/08 08:50:13;;;;;;;50.77;24.97;;;;;;;;;;5067036;28;20056;-77
2020/12/08 08:52:38;;;;;;;50.60;25.27;;;;;;;;;;5055941;28;20025;-76
2020/12/08 08:55:03;;;;;;;62.07;28.40;;;;;;;;;;5058219;28;20048;-76
2020/12/08 08:57:28;;;;;;;57.87;27.60;;;;;;;;;;5060845;28;20037;-76
2020/12/08 08:59:53;;;;;;;53.43;24.90;;;;;;;;;;5060042;28;20017;-76
2020/12/08 09:02:19;;;;;;;58.00;26.83;;;;;;;;;;5064624;28;20017;-76
2020/12/08 09:04:44;;;;;;;57.10;27.43;;;;;;;;;;5066758;28;20495;-76
2020/12/08 09:07:09;;;;;;;59.77;27.37;;;;;;;;;;5060402;28;20021;-76
2020/12/08 09:09:34;;;;;;;65.43;28.30;;;;;;;;;;5062680;28;20091;-76
2020/12/08 09:12:00;;;;;;;55.97;26.70;;;;;;;;;;5059439;28;20032;-76
2020/12/08 09:14:27;;;;;;;55.03;26.87;;;;;;;;;;5055630;28;20086;-76
2020/12/08 09:16:52;;;;;;;55.17;26.03;;;;;;;;;;5065376;28;20055;-76
2020/12/08 09:19:18;;;;;;;50.40;23.60;;;;;;;;;;5060559;28;20056;-76
2020/12/08 09:21:43;;;;;;;47.37;22.37;;;;;;;;;;5062725;28;20524;-76
2020/12/08 09:24:08;;;;;;;50.00;22.97;;;;;;;;;;5064358;28;20488;-76
2020/12/08 09:26:33;;;;;;;48.60;22.80;;;;;;;;;;5068664;28;20020;-76
2020/12/08 09:28:59;;;;;;;46.90;23.27;;;;;;;;;;5061240;28;20025;-76
2020/12/08 09:31:24;;;;;;;62.03;22.43;;;;;;;;;;5063692;28;20017;-76
2020/12/08 09:33:52;;;;;;;51.90;22.17;;;;;;;;;;5060260;28;20013;-76
2020/12/08 09:36:18;;;;;;;53.57;23.13;;;;;;;;;;5064548;28;20476;-76
2020/12/08 09:38:43;;;;;;;47.73;22.87;;;;;;;;;;5067347;28;20027;-77
2020/12/08 09:41:08;;;;;;;63.30;23.73;;;;;;;;;;5070806;28;20009;-76
2020/12/08 09:43:33;;;;;;;57.63;24.70;;;;;;;;;;5060016;28;20016;-76
2020/12/08 09:45:59;;;;;;;47.13;23.20;;;;;;;;;;5063933;28;20055;-76
2020/12/08 09:48:24;;;;;;;50.53;23.33;;;;;;;;;;5068929;28;20055;-76
2020/12/08 09:50:49;;;;;;;53.53;24.37;;;;;;;;;;5058751;28;20023;-76
2020/12/08 09:53:14;;;;;;;54.07;24.00;;;;;;;;;;5066765;28;20066;-76
2020/12/08 09:55:39;;;;;;;48.23;21.87;;;;;;;;;;5067082;28;20017;-76
2020/12/08 09:58:04;;;;;;;48.13;22.73;;;;;;;;;;5073481;28;20060;-76
2020/12/08 10:00:30;;;;;;;52.63;23.57;;;;;;;;;;5066627;28;21330;-76
2020/12/08 10:02:55;;;;;;;51.50;23.63;;;;;;;;;;5080041;28;20027;-76
2020/12/08 10:05:20;;;;;;;46.30;22.53;;;;;;;;;;5069786;28;20020;-76
2020/12/08 10:07:45;;;;;;;50.50;23.70;;;;;;;;;;5058589;28;20025;-75
2020/12/08 10:10:11;;;;;;;60.87;24.83;;;;;;;;;;5061916;28;20032;-76
2020/12/08 10:12:36;;;;;;;51.90;25.27;;;;;;;;;;5061930;28;20100;-76
2020/12/08 10:15:01;;;;;;;56.47;25.63;;;;;;;;;;5060533;28;20033;-76
2020/12/08 10:17:26;;;;;;;57.80;25.10;;;;;;;;;;5063106;28;20035;-76
2020/12/08 10:19:52;;;;;;;56.73;25.87;;;;;;;;;;5059711;28;20090;-76
2020/12/08 10:22:17;;;;;;;60.23;26.57;;;;;;;;;;5066992;28;20522;-76
2020/12/08 10:24:42;;;;;;;57.83;26.53;;;;;;;;;;5060365;28;20530;-76
2020/12/08 10:27:08;;;;;;;55.00;25.60;;;;;;;;;;5066981;28;20460;-76
2020/12/08 10:29:33;;;;;;;52.43;22.17;;;;;;;;;;5066321;28;20020;-76
2020/12/08 10:31:59;;;;;;;52.57;25.30;;;;;;;;;;5066523;28;20388;-76
2020/12/08 10:34:24;;;;;;;49.07;24.37;;;;;;;;;;5078027;28;20020;-76
2020/12/08 10:36:49;;;;;;;47.70;22.67;;;;;;;;;;5059509;28;20060;-76
2020/12/08 10:39:15;;;;;;;50.63;23.43;;;;;;;;;;5072419;28;20028;-76
2020/12/08 10:41:41;;;;;;;50.50;24.17;;;;;;;;;;5065876;28;20029;-76
2020/12/08 10:44:06;;;;;;;52.13;24.90;;;;;;;;;;5071991;28;20779;-76
2020/12/08 10:46:32;;;;;;;55.33;24.47;;;;;;;;;;5068818;28;20025;-76
2020/12/08 10:48:57;;;;;;;49.83;24.87;;;;;;;;;;5056292;28;20032;-76
2020/12/08 10:51:22;;;;;;;52.63;24.37;;;;;;;;;;5061626;28;20021;-76
2020/12/08 10:53:47;;;;;;;49.70;23.97;;;;;;;;;;5078942;28;20035;-76
2020/12/08 10:56:17;;;;;;;50.13;23.20;;;;;;;;;;5068207;28;20020;-76
2020/12/08 10:58:42;;;;;;;52.30;25.43;;;;;;;;;;5067162;28;20040;-76
2020/12/08 11:01:07;;;;;;;53.00;25.43;;;;;;;;;;5064009;28;20384;-76
2020/12/08 11:03:32;;;;;;;50.73;27.43;;;;;;;;;;5062002;28;20032;-76
2020/12/08 11:05:57;;;;;;;54.50;25.87;;;;;;;;;;5062323;28;20028;-76
2020/12/08 11:08:22;;;;;;;51.03;24.63;;;;;;;;;;5060757;28;20036;-76
2020/12/08 11:10:48;;;;;;;55.03;26.23;;;;;;;;;;5066518;28;20476;-76
2020/12/08 11:13:13;;;;;;;54.57;25.43;;;;;;;;;;5065456;28;20013;-76
2020/12/08 11:15:38;;;;;;;59.67;27.10;;;;;;;;;;5067638;28;20024;-76
2020/12/08 11:18:03;;;;;;;53.50;25.90;;;;;;;;;;5063828;28;20024;-76
2020/12/08 11:20:28;;;;;;;51.53;25.20;;;;;;;;;;5057656;28;20025;-76
2020/12/08 11:22:54;;;;;;;50.97;25.13;;;;;;;;;;5059236;28;20016;-76
2020/12/08 11:25:19;;;;;;;47.40;23.70;;;;;;;;;;5065743;28;20379;-76
2020/12/08 11:27:44;;;;;;;54.93;25.50;;;;;;;;;;5059958;28;20338;-76
2020/12/08 11:30:09;;;;;;;53.47;24.50;;;;;;;;;;5075241;28;20028;-76
2020/12/08 11:32:34;;;;;;;52.50;25.53;;;;;;;;;;5067497;28;20038;-75
2020/12/08 11:35:00;;;;;;;52.03;24.80;;;;;;;;;;5061463;28;20070;-76
2020/12/08 11:37:26;;;;;;;50.23;24.83;;;;;;;;;;5063338;28;20013;-76
2020/12/08 11:39:52;;;;;;;51.30;24.03;;;;;;;;;;5068376;28;20075;-76
2020/12/08 11:42:17;;;;;;;51.03;24.77;;;;;;;;;;5057278;28;20021;-76
2020/12/08 11:44:43;;;;;;;47.53;25.27;;;;;;;;;;5071962;28;20033;-76
2020/12/08 11:47:08;;;;;;;54.90;23.90;;;;;;;;;;5061332;28;20086;-76
2020/12/08 11:49:36;;;;;;;48.97;23.80;;;;;;;;;;5058699;28;20099;-76
2020/12/08 11:52:01;;;;;;;53.77;25.87;;;;;;;;;;5061388;28;20017;-77
2020/12/08 11:54:26;;;;;;;55.20;26.53;;;;;;;;;;5070831;28;20483;-77
2020/12/08 11:56:52;;;;;;;58.97;26.80;;;;;;;;;;5069619;28;20100;-77
2020/12/08 11:59:17;;;;;;;51.50;24.83;;;;;;;;;;5063772;28;20029;-77
2020/12/08 12:01:42;;;;;;;57.90;25.50;;;;;;;;;;5061779;28;20044;-76
2020/12/08 12:04:07;;;;;;;57.00;25.90;;;;;;;;;;5070973;28;20077;-77
2020/12/08 12:06:33;;;;;;;56.87;24.60;;;;;;;;;;5066532;28;20025;-77
2020/12/08 12:08:58;;;;;;;52.40;26.03;;;;;;;;;;5064604;28;20092;-77
2020/12/08 12:11:23;;;;;;;51.90;26.20;;;;;;;;;;5065066;28;20021;-77
2020/12/08 12:13:48;;;;;;;51.97;24.90;;;;;;;;;;5067272;28;20368;-77
2020/12/08 12:16:14;;;;;;;49.53;23.67;;;;;;;;;;5064238;28;20032;-76
2020/12/08 12:18:40;;;;;;;50.57;23.63;;;;;;;;;;5066266;28;20100;-77
2020/12/08 12:21:05;;;;;;;53.80;25.93;;;;;;;;;;5068342;28;20044;-76
2020/12/08 12:23:30;;;;;;;50.90;25.37;;;;;;;;;;5059334;28;20043;-77
2020/12/08 12:25:55;;;;;;;53.67;26.50;;;;;;;;;;5058552;28;20028;-77
2020/12/08 12:28:21;;;;;;;52.53;25.40;;;;;;;;;;5055266;28;20431;-77
2020/12/08 12:30:46;;;;;;;52.47;24.97;;;;;;;;;;5058550;28;20021;-77
2020/12/08 12:33:11;;;;;;;51.93;26.33;;;;;;;;;;5071355;28;20333;-77
2020/12/08 12:35:36;;;;;;;52.93;25.83;;;;;;;;;;5059846;28;20017;-76
2020/12/08 12:38:01;;;;;;;57.23;25.97;;;;;;;;;;5061667;28;20602;-77
2020/12/08 12:40:27;;;;;;;58.20;25.33;;;;;;;;;;5073833;28;20067;-76
2020/12/08 12:42:52;;;;;;;48.73;24.03;;;;;;;;;;5074445;28;20017;-77
2020/12/08 12:45:18;;;;;;;51.20;25.20;;;;;;;;;;5062460;28;20482;-77
2020/12/08 12:47:43;;;;;;;47.93;24.33;;;;;;;;;;5063405;28;20059;-77
2020/12/08 12:50:08;;;;;;;50.27;24.33;;;;;;;;;;5057415;28;20044;-76
2020/12/08 12:52:34;;;;;;;47.80;24.27;;;;;;;;;;5065616;28;20024;-76
2020/12/08 12:54:59;;;;;;;51.03;25.33;;;;;;;;;;5100883;28;20024;-77
2020/12/08 12:57:24;;;;;;;49.40;24.33;;;;;;;;;;5057185;28;20070;-77
2020/12/08 12:59:49;;;;;;;51.00;24.33;;;;;;;;;;5060396;28;20029;-76
2020/12/08 13:02:15;;;;;;;46.53;23.50;;;;;;;;;;5088494;28;20051;-77
2020/12/08 13:04:40;;;;;;;52.03;24.17;;;;;;;;;;5058985;28;20020;-77
2020/12/08 13:07:05;;;;;;;49.63;24.17;;;;;;;;;;5074102;28;20420;-76
2020/12/08 13:09:30;;;;;;;50.13;25.23;;;;;;;;;;5073588;28;20040;-77
2020/12/08 13:11:55;;;;;;;52.90;24.13;;;;;;;;;;5074795;28;20044;-77
2020/12/08 13:14:21;;;;;;;44.33;23.93;;;;;;;;;;5061497;28;20372;-77
2020/12/08 13:16:49;;;;;;;50.13;24.20;;;;;;;;;;5071131;28;20021;-76
2020/12/08 13:19:15;;;;;;;46.60;23.83;;;;;;;;;;5062828;28;20166;-77
2020/12/08 13:21:40;;;;;;;48.63;24.43;;;;;;;;;;5059646;28;20024;-76
2020/12/08 13:24:05;;;;;;;51.03;23.20;;;;;;;;;;5063188;28;20039;-77
2020/12/08 13:26:30;;;;;;;45.07;23.30;;;;;;;;;;5070413;28;20428;-77
2020/12/08 13:28:56;;;;;;;52.10;23.60;;;;;;;;;;5059706;28;20076;-77
2020/12/08 13:31:22;;;;;;;48.60;24.47;;;;;;;;;;5069947;28;20015;-77
2020/12/08 13:33:47;;;;;;;47.87;24.50;;;;;;;;;;5079238;28;20107;-76
2020/12/08 13:36:12;;;;;;;50.73;23.70;;;;;;;;;;5073180;28;20028;-77
2020/12/08 13:38:37;;;;;;;48.60;24.00;;;;;;;;;;5062435;28;20032;-77
2020/12/08 13:41:02;;;;;;;44.33;22.97;;;;;;;;;;5064901;28;20028;-77
2020/12/08 13:43:28;;;;;;;49.33;24.17;;;;;;;;;;5065372;28;20044;-77
2020/12/08 13:45:53;;;;;;;47.07;23.50;;;;;;;;;;5071763;28;20020;-77
2020/12/08 13:48:18;;;;;;;48.33;22.87;;;;;;;;;;5058988;28;20037;-77
2020/12/08 13:50:44;;;;;;;45.40;23.40;;;;;;;;;;5063391;28;20036;-77
2020/12/08 13:53:13;;;;;;;43.00;22.60;;;;;;;;;;5063505;28;20033;-77
2020/12/08 13:55:44;;;;;;;49.37;25.30;;;;;;;;;;5058922;28;20469;-77
2020/12/08 13:58:10;;;;;;;47.27;24.67;;;;;;;;;;5063950;28;20028;-77
2020/12/08 14:00:35;;;;;;;50.00;24.63;;;;;;;;;;5063287;28;20628;-77
2020/12/08 14:03:01;;;;;;;50.50;24.30;;;;;;;;;;5066064;28;20099;-77
2020/12/08 14:05:26;;;;;;;49.80;24.07;;;;;;;;;;5072756;28;20085;-77
2020/12/08 14:07:52;;;;;;;51.00;25.80;;;;;;;;;;5063063;28;20120;-77
2020/12/08 14:10:18;;;;;;;49.53;24.93;;;;;;;;;;5065761;28;20051;-77